createdAt,value
2019-04-23T00:04:05.842Z,36.62
2019-04-23T00:06:45.500Z,36.61
2019-04-23T00:09:13.713Z,37.30
2019-04-23T00:11:51.616Z,38.33
2019-04-23T00:14:15.537Z,38.28
2019-04-23T00:16:41.782Z,38.35
2019-04-23T00:19:22.892Z,39.75
2019-04-23T00:21:46.037Z,40.35
2019-04-23T00:27:35.572Z,42.00
2019-04-23T00:30:12.941Z,42.04
2019-04-23T00:32:30.318Z,42.56
2019-04-23T00:34:59.623Z,42.73
2019-04-23T00:37:31.563Z,45.09
2019-04-23T00:39:56.537Z,45.23
2019-04-23T00:42:40.459Z,47.12
2019-04-23T00:44:56.250Z,45.96
2019-04-23T00:50:12.727Z,48.35
2019-04-23T00:52:35.289Z,47.66
2019-04-23T00:55:19.069Z,49.44
2019-04-23T00:57:35.907Z,50.94
2019-04-23T01:00:11.452Z,50.39
2019-04-23T01:02:37.526Z,50.16
2019-04-23T01:07:38.563Z,49.96
2019-04-23T01:10:10.593Z,53.38
2019-04-23T01:15:14.168Z,53.29
2019-04-23T01:20:14.571Z,54.90
2019-04-23T01:22:46.433Z,55.89
2019-04-23T01:25:31.052Z,55.34
2019-04-23T01:28:13.732Z,55.80
2019-04-23T01:30:47.524Z,56.23
2019-04-23T01:33:34.071Z,57.04
2019-04-23T01:36:14.444Z,57.46
2019-04-23T01:38:35.128Z,58.09
2019-04-23T01:41:00.293Z,57.12
2019-04-23T01:43:33.655Z,57.17
2019-04-23T01:46:02.698Z,58.28
2019-04-23T01:48:34.254Z,57.46
2019-04-23T01:51:20.191Z,58.10
2019-04-23T01:56:04.875Z,56.94
2019-04-23T01:58:44.087Z,57.51
2019-04-23T02:01:30.040Z,56.96
2019-04-23T02:03:43.799Z,58.84
2019-04-23T02:06:13.598Z,57.28
2019-04-23T02:08:47.289Z,58.03
2019-04-23T02:11:11.516Z,59.50
2019-04-23T02:13:49.699Z,60.86
2019-04-23T02:16:19.274Z,61.79
2019-04-23T02:18:56.716Z,60.58
2019-04-23T02:21:33.424Z,58.74
2019-04-23T02:24:12.132Z,60.46
2019-04-23T02:26:43.487Z,60.24
2019-04-23T02:29:34.449Z,60.87
2019-04-23T02:31:58.260Z,61.82
2019-04-23T02:34:33.450Z,61.30
2019-04-23T02:36:55.014Z,61.55
2019-04-23T02:39:32.728Z,61.16
2019-04-23T02:42:07.768Z,61.62
2019-04-23T02:49:35.773Z,62.51
2019-04-23T02:51:59.259Z,60.96
2019-04-23T02:59:51.298Z,60.68
2019-04-23T03:02:15.551Z,61.61
2019-04-23T03:04:33.956Z,61.27
2019-04-23T03:09:39.868Z,63.54
2019-04-23T03:12:18.364Z,62.46
2019-04-23T03:14:43.684Z,62.94
2019-04-23T03:19:47.553Z,64.74
2019-04-23T03:22:35.438Z,65.71
2019-04-23T03:27:31.197Z,64.04
2019-04-23T03:33:44.091Z,65.01
2019-04-23T03:35:17.777Z,64.52
2019-04-23T03:42:42.798Z,64.75
2019-04-23T03:47:42.285Z,66.27
2019-04-23T03:50:14.691Z,65.29
2019-04-23T03:55:28.309Z,64.93
2019-04-23T03:57:54.106Z,66.88
2019-04-23T04:00:33.203Z,66.68
2019-04-23T04:05:36.047Z,66.56
2019-04-23T04:10:30.771Z,65.55
2019-04-23T04:12:56.859Z,66.62
2019-04-23T04:15:53.433Z,66.51
2019-04-23T04:18:13.924Z,67.47
2019-04-23T04:20:46.982Z,67.05
2019-04-23T04:25:37.484Z,67.76
2019-04-23T04:28:25.641Z,68.23
2019-04-23T04:30:38.843Z,67.93
2019-04-23T04:33:38.660Z,68.87
2019-04-23T04:35:58.417Z,68.97
2019-04-23T04:41:03.083Z,69.76
2019-04-23T04:46:12.776Z,64.43
2019-04-23T04:48:44.392Z,65.88
2019-04-23T04:53:54.058Z,65.72
2019-04-23T04:56:16.593Z,64.33
2019-04-23T04:58:47.542Z,66.29
2019-04-23T05:03:29.134Z,65.58
2019-04-23T05:06:18.586Z,64.66
2019-04-23T05:13:49.851Z,68.04
2019-04-23T05:16:27.564Z,67.14
2019-04-23T05:19:06.191Z,66.62
2019-04-23T05:21:26.821Z,66.74
2019-04-23T05:24:14.922Z,66.00
2019-04-23T05:26:26.564Z,67.10
2019-04-23T05:29:01.900Z,66.26
2019-04-23T05:34:02.572Z,66.66
2019-04-23T05:36:35.577Z,65.45
2019-04-23T05:39:12.151Z,66.16
2019-04-23T05:41:36.909Z,67.29
2019-04-23T05:44:10.400Z,64.88
2019-04-23T05:46:42.953Z,66.14
2019-04-23T05:54:12.536Z,66.75
2019-04-23T05:56:54.119Z,66.56
2019-04-23T05:59:11.633Z,66.18
2019-04-23T06:04:17.694Z,64.22
2019-04-23T06:06:55.818Z,64.54
2019-04-23T06:11:50.965Z,64.50
2019-04-23T06:16:49.662Z,66.41
2019-04-23T06:24:43.042Z,65.49
2019-04-23T06:27:00.988Z,65.74
2019-04-23T06:29:33.580Z,66.74
2019-04-23T06:32:02.778Z,65.49
2019-04-23T06:34:43.614Z,65.20
2019-04-23T06:37:09.247Z,63.77
2019-04-23T06:39:55.178Z,63.46
2019-04-23T06:42:23.123Z,66.00
2019-04-23T06:44:58.229Z,66.96
2019-04-23T06:47:29.354Z,58.66
2019-04-23T06:49:55.542Z,61.70
2019-04-23T06:52:21.566Z,62.13
2019-04-23T06:57:39.798Z,59.47
2019-04-23T07:00:04.331Z,60.59
2019-04-23T07:05:03.231Z,57.19
2019-04-23T07:07:42.593Z,57.36
2019-04-23T07:09:58.286Z,56.26
2019-04-23T07:12:36.407Z,56.10
2019-04-23T07:15:27.994Z,57.06
2019-04-23T07:17:34.587Z,55.91
2019-04-23T07:20:11.622Z,56.66
2019-04-23T07:22:35.546Z,55.84
2019-04-23T07:25:12.867Z,56.71
2019-04-23T07:27:37.861Z,55.98
2019-04-23T07:30:17.069Z,56.44
2019-04-23T07:32:49.650Z,56.37
2019-04-23T07:35:13.314Z,54.79
2019-04-23T07:37:48.859Z,56.14
2019-04-23T07:40:31.294Z,55.17
2019-04-23T07:43:03.393Z,54.89
2019-04-23T07:45:34.923Z,55.69
2019-04-23T07:50:42.426Z,55.48
2019-04-23T08:01:01.917Z,53.49
2019-04-23T08:03:31.283Z,51.42
2019-04-23T08:06:08.813Z,51.77
2019-04-23T08:08:30.335Z,52.12
2019-04-23T08:16:25.947Z,50.69
2019-04-23T08:18:52.381Z,48.57
2019-04-23T08:21:14.716Z,49.42
2019-04-23T08:24:01.913Z,48.08
2019-04-23T08:26:50.802Z,48.90
2019-04-23T08:29:24.976Z,48.90
2019-04-23T08:34:39.075Z,46.57
2019-04-23T08:39:39.831Z,46.85
2019-04-23T08:42:27.090Z,47.52
2019-04-23T08:44:44.960Z,47.16
2019-04-23T08:54:52.294Z,45.57
2019-04-23T08:57:14.482Z,44.81
2019-04-23T09:04:58.366Z,45.59
2019-04-23T09:07:20.566Z,46.59
2019-04-23T09:09:56.685Z,45.95
2019-04-23T09:12:23.712Z,46.13
2019-04-23T09:14:52.338Z,46.12
2019-04-23T09:17:27.789Z,46.17
2019-04-23T09:20:11.852Z,45.90
2019-04-23T09:22:28.354Z,46.07
2019-04-23T09:25:06.622Z,46.18
2019-04-23T09:27:39.749Z,45.75
2019-04-23T09:30:00.929Z,45.89
2019-04-23T09:35:08.654Z,46.08
2019-04-23T09:40:25.354Z,44.39
2019-04-23T09:45:48.808Z,44.69
2019-04-23T09:48:15.194Z,46.04
2019-04-23T09:50:52.340Z,46.31
2019-04-23T09:55:41.914Z,45.35
2019-04-23T10:00:46.840Z,45.66
2019-04-23T10:03:09.020Z,45.38
2019-04-23T10:05:48.275Z,45.63
2019-04-23T10:08:18.548Z,46.00
2019-04-23T10:10:38.412Z,46.70
2019-04-23T10:13:08.334Z,47.32
2019-04-23T10:15:42.508Z,46.73
2019-04-23T10:18:10.023Z,46.05
2019-04-23T10:20:40.655Z,45.73
2019-04-23T10:23:10.349Z,45.61
2019-04-23T10:25:43.665Z,47.25
2019-04-23T10:28:26.601Z,46.91
2019-04-23T10:30:56.590Z,46.40
2019-04-23T10:33:25.532Z,46.94
2019-04-23T10:36:02.212Z,47.55
2019-04-23T10:38:26.713Z,47.17
2019-04-23T10:40:58.023Z,47.20
2019-04-23T10:43:28.776Z,46.77
2019-04-23T10:46:31.057Z,46.85
2019-04-23T10:49:34.879Z,48.19
2019-04-23T10:52:09.636Z,49.82
2019-04-23T10:54:39.941Z,49.00
2019-04-23T10:56:59.557Z,49.30
2019-04-23T11:07:28.747Z,49.97
2019-04-23T11:17:45.962Z,52.38
2019-04-23T11:22:45.058Z,53.90
2019-04-23T11:25:28.074Z,53.17
2019-04-23T11:27:53.934Z,53.32
2019-04-23T11:33:09.112Z,52.23
2019-04-23T11:40:26.836Z,47.89
2019-04-23T11:43:06.160Z,47.69
2019-04-23T11:45:32.492Z,47.81
2019-04-23T11:48:24.426Z,47.93
2019-04-23T11:51:20.804Z,47.53
2019-04-23T11:55:49.322Z,48.59
2019-04-23T11:58:13.779Z,48.54
2019-04-23T12:00:51.254Z,48.48
2019-04-23T12:03:17.806Z,48.02
2019-04-23T12:06:25.136Z,47.38
2019-04-23T12:08:43.202Z,47.55
2019-04-23T12:14:24.264Z,47.69
2019-04-23T12:16:50.535Z,47.79
2019-04-23T12:21:43.971Z,47.46
2019-04-23T12:26:50.629Z,47.82
2019-04-23T12:29:18.621Z,47.35
2019-04-23T12:31:49.154Z,46.23
2019-04-23T12:34:25.695Z,46.78
2019-04-23T12:36:51.029Z,47.38
2019-04-23T12:39:27.111Z,47.41
2019-04-23T12:42:01.653Z,47.48
2019-04-23T12:44:38.987Z,47.16
2019-04-23T12:47:27.130Z,47.25
2019-04-23T12:50:13.484Z,47.47
2019-04-23T12:52:28.339Z,47.73
2019-04-23T12:55:10.183Z,48.86
2019-04-23T12:57:29.945Z,48.96
2019-04-23T12:59:58.397Z,49.03
2019-04-23T13:02:38.336Z,49.29
2019-04-23T13:05:00.268Z,49.64
2019-04-23T13:07:38.558Z,50.27
2019-04-23T13:12:47.399Z,52.07
2019-04-23T13:15:11.365Z,51.41
2019-04-23T13:22:48.903Z,52.08
2019-04-23T13:25:34.813Z,51.55
2019-04-23T13:30:46.086Z,50.03
2019-04-23T13:38:32.133Z,49.72
2019-04-23T13:48:31.243Z,48.21
2019-04-23T13:51:19.826Z,48.19
2019-04-23T13:56:09.075Z,50.44
2019-04-23T13:58:50.165Z,51.21
2019-04-23T14:01:23.499Z,50.09
2019-04-23T14:04:00.996Z,50.94
2019-04-23T14:08:55.194Z,50.75
2019-04-23T14:17:16.588Z,50.21
2019-04-23T14:19:34.183Z,50.44
2019-04-23T14:22:32.768Z,49.06
2019-04-23T14:27:37.126Z,45.59
2019-04-23T14:32:39.417Z,45.96
2019-04-23T14:38:12.905Z,46.25
2019-04-23T14:40:22.111Z,47.29
2019-04-23T14:42:56.104Z,47.02
2019-04-23T14:45:31.294Z,46.39
2019-04-23T14:48:02.807Z,45.99
2019-04-23T14:53:13.254Z,45.06
2019-04-23T14:58:11.225Z,44.25
2019-04-23T15:00:41.370Z,43.68
2019-04-23T15:05:45.974Z,44.02
2019-04-23T15:08:15.289Z,43.99
2019-04-23T15:13:14.729Z,43.87
2019-04-23T15:15:48.660Z,44.18
2019-04-23T15:18:33.095Z,44.86
2019-04-23T15:21:42.759Z,44.93
2019-04-23T15:24:06.971Z,45.31
2019-04-23T15:27:29.583Z,45.64
2019-04-23T15:28:43.666Z,45.91
2019-04-23T15:31:52.698Z,46.84
2019-04-23T15:34:09.315Z,47.48
2019-04-23T15:36:51.759Z,47.75
2019-04-23T15:42:08.856Z,49.20
2019-04-23T15:44:08.682Z,49.19
2019-04-23T15:46:40.900Z,49.36
2019-04-23T15:52:03.991Z,49.89
2019-04-23T15:54:35.610Z,50.01
2019-04-23T15:59:33.381Z,50.85
2019-04-23T16:01:42.038Z,51.19
2019-04-23T16:04:08.793Z,51.87
2019-04-23T16:06:38.498Z,52.34
2019-04-23T16:09:28.493Z,52.90
2019-04-23T16:12:01.467Z,52.62
2019-04-23T16:14:47.881Z,52.47
2019-04-23T16:17:17.462Z,52.04
2019-04-23T16:19:54.141Z,52.22
2019-04-23T16:22:30.347Z,51.42
2019-04-23T16:24:55.531Z,51.42
2019-04-23T16:27:16.932Z,50.98
2019-04-23T16:30:10.438Z,50.01
2019-04-23T16:35:06.196Z,49.65
2019-04-23T16:37:27.210Z,48.52
2019-04-23T16:40:03.500Z,48.16
2019-04-23T16:42:29.247Z,47.48
2019-04-23T16:47:29.732Z,48.13
2019-04-23T16:50:13.026Z,49.00
2019-04-23T16:52:32.867Z,49.73
2019-04-23T16:55:07.086Z,50.32
2019-04-23T17:02:34.202Z,50.64
2019-04-23T17:05:16.202Z,51.00
2019-04-23T17:07:41.822Z,50.87
2019-04-23T17:10:16.100Z,50.89
2019-04-23T17:12:46.284Z,50.84
2019-04-23T17:15:23.203Z,50.70
2019-04-23T17:17:37.955Z,50.58
2019-04-23T17:20:16.665Z,50.15
2019-04-23T17:22:46.869Z,49.29
2019-04-23T17:25:17.630Z,49.49
2019-04-23T17:27:48.852Z,49.98
2019-04-23T17:30:22.171Z,50.15
2019-04-23T17:33:02.488Z,50.62
2019-04-23T17:35:29.614Z,50.21
2019-04-23T17:38:00.697Z,50.41
2019-04-23T17:40:24.451Z,50.50
2019-04-23T17:43:02.989Z,50.03
2019-04-23T17:45:33.848Z,50.46
2019-04-23T17:48:13.231Z,50.26
2019-04-23T17:53:41.311Z,50.24
2019-04-23T18:01:11.038Z,50.21
2019-04-23T18:03:30.362Z,50.30
2019-04-23T18:08:27.739Z,50.97
2019-04-23T18:13:27.685Z,50.31
2019-04-23T18:16:09.584Z,50.41
2019-04-23T18:18:39.564Z,50.42
2019-04-23T18:24:08.973Z,50.81
2019-04-23T18:26:47.053Z,50.75
2019-04-23T18:29:27.768Z,50.91
2019-04-23T18:32:14.622Z,50.70
2019-04-23T18:34:53.818Z,50.76
2019-04-23T18:42:29.642Z,49.61
2019-04-23T18:45:00.334Z,49.83
2019-04-23T18:47:37.807Z,49.22
2019-04-23T18:50:02.631Z,48.88
2019-04-23T18:52:48.457Z,48.56
2019-04-23T18:54:53.990Z,47.50
2019-04-23T18:57:32.152Z,47.25
2019-04-23T19:00:09.079Z,47.29
2019-04-23T19:02:55.107Z,47.16
2019-04-23T19:05:30.915Z,47.18
2019-04-23T19:08:10.225Z,47.74
2019-04-23T19:10:30.743Z,47.61
2019-04-23T19:13:12.632Z,47.29
2019-04-23T19:15:39.622Z,47.45
2019-04-23T19:18:04.003Z,47.49
2019-04-23T19:23:16.372Z,47.13
2019-04-23T19:25:40.519Z,46.64
2019-04-23T19:28:29.061Z,46.69
2019-04-23T19:31:05.034Z,46.52
2019-04-23T19:33:41.906Z,46.50
2019-04-23T19:38:33.344Z,45.95
2019-04-23T19:43:45.833Z,45.20
2019-04-23T19:46:22.310Z,45.34
2019-04-23T19:48:42.256Z,45.13
2019-04-23T19:58:46.754Z,45.99
2019-04-23T20:06:13.770Z,46.92
2019-04-23T20:09:03.811Z,46.84
2019-04-23T20:11:09.158Z,46.97
2019-04-23T20:16:23.182Z,47.51
2019-04-23T20:21:04.050Z,47.25
2019-04-23T20:36:38.559Z,47.36
2019-04-23T20:39:12.251Z,47.27
2019-04-23T20:42:07.870Z,47.11
2019-04-23T20:44:35.889Z,46.78
2019-04-23T20:47:00.287Z,46.46
2019-04-23T20:49:31.923Z,46.29
2019-04-23T20:52:00.170Z,46.72
2019-04-23T20:54:39.632Z,46.55
2019-04-23T20:57:24.935Z,46.46
2019-04-23T20:59:50.008Z,46.23
2019-04-23T21:02:39.709Z,46.07
2019-04-23T21:05:10.210Z,45.95
2019-04-23T21:07:30.554Z,45.84
2019-04-23T21:10:08.894Z,45.33
2019-04-23T21:12:48.209Z,45.15
2019-04-23T21:15:08.689Z,45.27
2019-04-23T21:17:40.657Z,45.65
2019-04-23T21:20:08.465Z,45.83
2019-04-23T21:24:54.606Z,45.35
2019-04-23T21:30:03.460Z,45.58
2019-04-23T21:32:42.174Z,45.12
2019-04-23T21:35:17.726Z,45.09
2019-04-23T21:37:49.507Z,45.35
2019-04-23T21:42:58.919Z,46.09
2019-04-23T21:45:24.415Z,46.22
2019-04-23T21:48:02.996Z,45.83
2019-04-23T21:50:25.238Z,45.30
2019-04-23T21:52:56.093Z,44.98
2019-04-23T21:55:37.100Z,45.14
2019-04-23T21:57:59.607Z,45.09
2019-04-23T22:00:26.237Z,45.56
2019-04-23T22:03:02.584Z,45.93
2019-04-23T22:05:40.540Z,46.65
2019-04-23T22:07:58.146Z,47.04
2019-04-23T22:10:26.427Z,47.21
2019-04-23T22:13:11.916Z,47.66
2019-04-23T22:15:39.577Z,47.65
2019-04-23T22:20:39.815Z,48.13
2019-04-23T22:25:41.748Z,48.41
2019-04-23T22:27:58.260Z,48.79
2019-04-23T22:30:42.379Z,49.10
2019-04-23T22:35:45.060Z,49.72
2019-04-23T22:40:41.665Z,49.16
2019-04-23T22:43:14.719Z,48.94
2019-04-23T22:45:44.397Z,49.56
2019-04-23T22:48:11.844Z,51.16
2019-04-23T22:50:57.018Z,50.48
2019-04-23T22:55:49.697Z,50.92
2019-04-23T22:58:10.826Z,51.00
2019-04-23T23:01:14.701Z,49.99
2019-04-23T23:03:35.666Z,48.84
2019-04-23T23:06:10.687Z,48.19
2019-04-23T23:08:52.236Z,48.30
2019-04-23T23:11:02.311Z,48.68
2019-04-23T23:16:24.554Z,47.89
2019-04-23T23:18:50.015Z,48.18
2019-04-23T23:21:13.386Z,48.17
2019-04-23T23:23:39.510Z,48.03
2019-04-23T23:26:09.836Z,47.83
2019-04-23T23:28:40.990Z,48.12
2019-04-23T23:31:16.155Z,48.29
2019-04-23T23:36:16.024Z,48.61
2019-04-23T23:38:50.846Z,48.99
2019-04-23T23:44:05.985Z,47.50
2019-04-23T23:46:22.147Z,49.03
2019-04-23T23:48:41.973Z,49.10
2019-04-23T23:51:16.518Z,49.21
2019-04-23T23:54:00.405Z,49.79
2019-04-23T23:56:34.948Z,49.34
